Time;durP1;ratioP1;P1;durP2;ratioP2;P2;SDS_P1;SDS_P2;PMS_P1;PMS_P2;Temp;Humidity;BMP_temperature;BMP_pressure;BME280_temperature;BME280_humidity;BME280_pressure;Samples;Min_cycle;Max_cycle;Signal;HPM_P1;HPM_P2
2021/01/25 00:00:28;;;;;;;24.07;10.55;;;;;;;4.47;75.13;96962.61;1801237;79;21253;-81
2021/01/25 00:02:58;;;;;;;22.25;9.53;;;;;;;4.48;74.93;96956.12;1798962;79;21209;-82
2021/01/25 00:05:26;;;;;;;19.70;8.38;;;;;;;4.45;76.26;96947.22;1799977;79;21323;-80
2021/01/25 00:07:54;;;;;;;17.00;7.03;;;;;;;4.50;75.58;96942.76;1798665;79;21256;-82
2021/01/25 00:10:21;;;;;;;15.53;7.12;;;;;;;4.59;75.43;96955.73;1800395;79;21306;-81
2021/01/25 00:12:49;;;;;;;14.80;6.83;;;;;;;4.70;75.28;96949.77;1797137;79;21307;-82
2021/01/25 00:15:17;;;;;;;15.28;6.10;;;;;;;4.84;75.05;96936.41;1803058;79;21339;-81
2021/01/25 00:17:47;;;;;;;15.43;6.92;;;;;;;4.98;75.09;96925.14;1800832;79;21154;-81
2021/01/25 00:20:15;;;;;;;14.07;6.22;;;;;;;5.15;74.84;96933.95;1802419;79;21323;-80
2021/01/25 00:22:44;;;;;;;20.30;8.95;;;;;;;5.29;74.13;96918.84;1807101;79;21247;-82
2021/01/25 00:25:12;;;;;;;22.07;8.95;;;;;;;5.42;74.44;96915.31;1804384;79;21304;-82
2021/01/25 00:27:39;;;;;;;30.37;13.90;;;;;;;5.52;73.51;96911.93;1801402;79;21264;-80
2021/01/25 00:30:12;;;;;;;26.95;11.45;;;;;;;5.60;73.91;96910.34;1798477;79;21174;-81
2021/01/25 00:32:39;;;;;;;32.23;13.70;;;;;;;5.67;73.76;96911.33;1799203;79;21315;-81
2021/01/25 00:35:08;;;;;;;23.75;9.60;;;;;;;5.70;73.69;96911.19;1801274;79;21314;-82
2021/01/25 00:37:36;;;;;;;15.55;6.83;;;;;;;5.73;73.42;96909.78;1802454;79;21299;-81
2021/01/25 00:40:06;;;;;;;21.23;8.75;;;;;;;5.79;72.92;96913.86;1800056;79;21161;-81
2021/01/25 00:42:34;;;;;;;19.42;7.45;;;;;;;5.80;72.65;96888.91;1797741;79;21167;-80
2021/01/25 00:45:05;;;;;;;16.02;7.95;;;;;;;5.74;72.42;96903.70;1797642;79;21181;-86
2021/01/25 00:47:34;;;;;;;12.47;5.55;;;;;;;5.72;72.25;96904.68;1807693;79;21271;-80
2021/01/25 00:50:04;;;;;;;11.73;5.50;;;;;;;5.70;72.03;96885.41;1797786;78;21307;-82
2021/01/25 00:52:32;;;;;;;13.05;6.05;;;;;;;5.77;71.46;96880.85;1803144;79;21159;-83
2021/01/25 00:55:00;;;;;;;14.25;5.65;;;;;;;5.85;71.46;96876.21;1798056;79;21114;-85
2021/01/25 00:57:28;;;;;;;13.90;7.28;;;;;;;5.90;71.83;96870.85;1803324;79;21153;-84
2021/01/25 00:59:56;;;;;;;15.00;6.92;;;;;;;5.92;71.92;96863.43;1794078;79;22215;-86
2021/01/25 01:02:23;;;;;;;10.45;4.62;;;;;;;5.95;71.62;96866.38;1801737;79;21157;-88
2021/01/25 01:04:51;;;;;;;13.15;4.37;;;;;;;5.97;70.04;96859.42;1800180;79;21173;-87
2021/01/25 01:07:19;;;;;;;12.15;4.92;;;;;;;6.04;71.10;96853.08;1797436;79;21172;-85
2021/01/25 01:09:47;;;;;;;10.38;4.20;;;;;;;6.11;71.13;96853.67;1800199;79;21137;-83
2021/01/25 01:12:15;;;;;;;8.60;4.30;;;;;;;6.16;70.92;96843.98;1797417;79;21134;-87
2021/01/25 01:14:42;;;;;;;9.73;4.00;;;;;;;6.26;71.82;96830.22;1796948;79;21160;-88
2021/01/25 01:17:10;;;;;;;7.25;3.72;;;;;;;6.33;71.80;96839.38;1801563;79;21133;-85
2021/01/25 01:19:38;;;;;;;9.53;3.95;;;;;;;6.41;71.35;96829.55;1795626;79;21451;-86
2021/01/25 01:22:05;;;;;;;8.50;3.92;;;;;;;6.47;70.16;96824.58;1801207;79;21182;-86
2021/01/25 01:24:33;;;;;;;9.63;3.90;;;;;;;6.57;69.46;96821.95;1795843;79;21138;-82
2021/01/25 01:27:01;;;;;;;10.10;4.12;;;;;;;6.65;69.55;96817.74;1799408;79;21156;-83
2021/01/25 01:29:29;;;;;;;8.43;3.45;;;;;;;6.71;69.41;96811.00;1798162;78;21176;-85
2021/01/25 01:31:57;;;;;;;9.48;4.05;;;;;;;6.77;69.02;96816.71;1795153;79;21295;-80
2021/01/25 01:34:25;;;;;;;7.65;3.70;;;;;;;6.80;69.28;96809.27;1799744;79;21295;-82
2021/01/25 01:36:53;;;;;;;8.68;3.83;;;;;;;6.84;67.40;96809.50;1797595;79;21333;-81
2021/01/25 01:39:21;;;;;;;6.10;3.10;;;;;;;6.93;67.26;96809.09;1806206;79;21303;-80
2021/01/25 01:41:48;;;;;;;10.18;3.90;;;;;;;6.99;66.56;96798.09;1809644;79;21312;-82
2021/01/25 01:44:16;;;;;;;14.63;6.62;;;;;;;7.05;67.14;96792.63;1804077;79;21315;-80
2021/01/25 01:46:44;;;;;;;9.90;3.80;;;;;;;7.06;67.26;96786.54;1804796;79;21316;-82
2021/01/25 01:49:14;;;;;;;23.65;8.98;;;;;;;7.10;66.17;96790.65;1799611;79;21244;-82
2021/01/25 01:51:42;;;;;;;14.60;5.83;;;;;;;7.11;67.15;96788.46;1801025;79;21256;-83
2021/01/25 01:54:10;;;;;;;8.98;4.50;;;;;;;7.11;66.76;96776.83;1794792;79;21241;-81
2021/01/25 01:56:38;;;;;;;14.43;6.50;;;;;;;7.12;67.05;96770.73;1804180;78;21323;-81
2021/01/25 01:59:06;;;;;;;9.35;3.70;;;;;;;7.09;65.44;96767.86;1796532;79;21172;-81
2021/01/25 02:01:35;;;;;;;9.83;3.92;;;;;;;7.09;66.07;96773.02;1790120;79;21154;-82
2021/01/25 02:04:05;;;;;;;8.03;3.17;;;;;;;7.17;66.80;96769.61;1803706;79;21716;-80
2021/01/25 02:06:34;;;;;;;7.15;3.60;;;;;;;7.24;66.34;96759.83;1799601;79;21308;-82
2021/01/25 02:09:03;;;;;;;9.25;4.25;;;;;;;7.29;65.88;96768.64;1796523;79;21181;-83
2021/01/25 02:11:33;;;;;;;8.48;4.97;;;;;;;7.28;65.74;96758.77;1768437;79;21607;-81
2021/01/25 02:14:02;;;;;;;6.35;3.62;;;;;;;7.27;66.31;96753.20;1804308;78;21271;-81
2021/01/25 02:16:33;;;;;;;6.58;3.17;;;;;;;7.26;64.83;96748.96;1802100;79;21831;-81
2021/01/25 02:19:01;;;;;;;13.35;4.20;;;;;;;7.26;66.27;96740.35;1795663;79;21292;-81
2021/01/25 02:21:31;;;;;;;6.70;3.17;;;;;;;7.26;66.30;96748.96;1796666;79;21296;-81
2021/01/25 02:24:22;;;;;;;10.20;3.65;;;;;;;7.21;65.34;96734.13;1798168;79;21284;-82
2021/01/25 02:27:07;;;;;;;9.78;4.45;;;;;;;7.19;64.99;96741.58;1792427;79;21283;-82
2021/01/25 02:29:35;;;;;;;9.10;4.28;;;;;;;7.20;66.11;96740.19;1792370;79;21154;-80
2021/01/25 02:32:26;;;;;;;9.25;4.15;;;;;;;7.16;65.44;96736.09;1795828;79;21272;-82
2021/01/25 02:34:55;;;;;;;8.98;4.28;;;;;;;7.16;64.93;96730.48;1795112;79;21244;-80
2021/01/25 02:37:25;;;;;;;10.68;4.60;;;;;;;7.17;66.00;96723.56;1793199;79;21292;-81
2021/01/25 02:39:56;;;;;;;11.00;5.30;;;;;;;7.15;66.03;96724.09;1794299;79;21169;-84
2021/01/25 02:42:26;;;;;;;10.50;5.33;;;;;;;7.15;65.74;96727.50;1795119;79;21573;-81
2021/01/25 02:44:59;;;;;;;8.58;4.40;;;;;;;7.15;66.02;96718.92;1795553;79;21296;-81
2021/01/25 02:47:29;;;;;;;8.80;4.87;;;;;;;7.11;65.60;96716.94;1803598;79;21264;-81
2021/01/25 02:49:58;;;;;;;9.48;3.92;;;;;;;7.10;65.90;96712.70;1791595;79;22374;-80
2021/01/25 02:52:26;;;;;;;15.83;6.65;;;;;;;7.07;65.45;96704.26;1802412;78;22395;-81
2021/01/25 02:54:56;;;;;;;10.53;4.33;;;;;;;7.05;65.72;96700.92;1805016;79;21328;-82
2021/01/25 02:57:24;;;;;;;11.93;5.50;;;;;;;7.05;65.96;96693.17;1795188;78;21256;-80
2021/01/25 02:59:53;;;;;;;10.43;4.47;;;;;;;7.09;65.59;96698.09;1799480;79;21288;-82
2021/01/25 03:02:21;;;;;;;10.72;4.28;;;;;;;7.10;66.27;96699.78;1801345;79;21279;-81
2021/01/25 03:04:49;;;;;;;10.65;4.15;;;;;;;7.10;65.81;96707.53;1801008;79;21303;-82
2021/01/25 03:07:18;;;;;;;8.73;3.77;;;;;;;7.10;66.29;96697.63;1796434;79;21339;-80
2021/01/25 03:09:48;;;;;;;9.20;3.30;;;;;;;7.08;65.97;96699.45;1766706;79;21398;-82
2021/01/25 03:12:16;;;;;;;9.05;3.67;;;;;;;7.12;67.22;96698.39;1800270;79;21268;-81
2021/01/25 03:14:45;;;;;;;12.43;5.12;;;;;;;7.17;67.58;96696.43;1798189;79;21272;-82
2021/01/25 03:17:13;;;;;;;7.08;3.52;;;;;;;7.15;66.90;96696.96;1792729;79;21276;-81
2021/01/25 03:19:41;;;;;;;9.28;4.08;;;;;;;7.14;66.78;96689.67;1793679;79;21153;-81
2021/01/25 03:22:09;;;;;;;8.93;3.05;;;;;;;7.12;66.61;96690.64;1790802;79;21200;-80
2021/01/25 03:24:37;;;;;;;6.95;3.45;;;;;;;7.14;65.31;96698.72;1797834;79;21255;-81
2021/01/25 03:27:05;;;;;;;8.30;3.77;;;;;;;7.19;66.38;96701.53;1794901;79;21170;-81
2021/01/25 03:29:33;;;;;;;9.85;4.30;;;;;;;7.19;66.10;96706.23;1794229;79;21153;-82
2021/01/25 03:32:01;;;;;;;8.68;4.80;;;;;;;7.17;65.70;96698.55;1796629;79;21752;-82
2021/01/25 03:34:29;;;;;;;12.30;5.42;;;;;;;7.17;65.75;96707.59;1793762;79;21644;-81
2021/01/25 03:36:57;;;;;;;8.95;3.77;;;;;;;7.15;65.59;96706.84;1800905;79;21311;-80
2021/01/25 03:39:28;;;;;;;9.25;4.37;;;;;;;7.10;65.72;96703.66;1796965;79;21268;-81
2021/01/25 03:41:55;;;;;;;11.78;4.95;;;;;;;7.11;66.03;96705.78;1795609;79;21260;-80
2021/01/25 03:44:23;;;;;;;13.03;5.58;;;;;;;7.07;66.09;96706.38;1805521;78;21308;-80
2021/01/25 03:46:51;;;;;;;14.85;6.08;;;;;;;6.81;67.22;96692.62;1793585;78;22420;-81
2021/01/25 03:49:19;;;;;;;20.23;8.25;;;;;;;6.80;66.92;96696.09;1791536;79;21110;-81
2021/01/25 03:51:47;;;;;;;37.50;12.80;;;;;;;6.62;67.77;96696.52;1800596;79;21327;-81
2021/01/25 03:54:18;;;;;;;26.85;10.32;;;;;;;6.46;68.35;96702.86;1796451;79;21609;-81
2021/01/25 03:56:46;;;;;;;23.67;8.93;;;;;;;6.43;68.74;96698.69;1800300;79;21303;-80
2021/01/25 03:59:14;;;;;;;18.10;7.80;;;;;;;6.36;69.11;96701.16;1793066;79;21589;-81
2021/01/25 04:01:42;;;;;;;15.53;7.47;;;;;;;6.28;69.43;96702.80;1795737;79;21291;-82
2021/01/25 04:04:10;;;;;;;16.62;7.85;;;;;;;6.20;68.32;96702.33;1797542;79;21098;-81
2021/01/25 04:06:38;;;;;;;19.85;9.40;;;;;;;6.06;68.74;96696.50;1805686;78;22387;-81
2021/01/25 04:09:06;;;;;;;27.62;13.05;;;;;;;5.97;68.70;96704.67;1803843;78;21287;-81
2021/01/25 04:11:34;;;;;;;19.55;9.25;;;;;;;5.80;70.40;96702.80;1792080;79;21315;-82
2021/01/25 04:14:01;;;;;;;18.95;8.90;;;;;;;5.72;69.57;96697.97;1794328;79;21291;-82
2021/01/25 04:16:29;;;;;;;22.95;9.90;;;;;;;5.64;70.82;96706.50;1799092;78;21291;-81
2021/01/25 04:18:57;;;;;;;26.23;11.83;;;;;;;5.59;70.96;96712.33;1796257;79;21276;-82
2021/01/25 04:21:25;;;;;;;31.70;12.23;;;;;;;5.58;71.16;96714.50;1797347;79;21405;-81
2021/01/25 04:23:53;;;;;;;27.00;14.05;;;;;;;5.53;69.86;96703.11;1798701;79;21304;-80
2021/01/25 04:26:20;;;;;;;20.57;9.88;;;;;;;5.47;71.29;96707.67;1796472;79;21244;-80
2021/01/25 04:28:48;;;;;;;20.50;9.40;;;;;;;5.44;71.26;96715.09;1787303;79;21291;-82
2021/01/25 04:31:17;;;;;;;20.72;8.38;;;;;;;5.43;71.41;96706.98;1797707;79;21161;-80
2021/01/25 04:33:44;;;;;;;40.35;13.90;;;;;;;5.41;73.37;96702.78;1794637;79;21323;-82
2021/01/25 04:36:12;;;;;;;30.08;11.25;;;;;;;5.36;73.12;96712.00;1799867;78;21332;-81
2021/01/25 04:38:40;;;;;;;22.87;9.38;;;;;;;5.37;72.81;96704.64;1799638;79;21301;-81
2021/01/25 04:41:08;;;;;;;22.50;9.38;;;;;;;5.40;72.62;96713.55;1797933;79;21609;-82
2021/01/25 04:43:36;;;;;;;27.20;10.50;;;;;;;5.44;72.96;96711.69;1800015;79;21292;-82
2021/01/25 04:46:04;;;;;;;29.42;12.40;;;;;;;5.46;73.04;96726.63;1804233;79;21276;-81
2021/01/25 04:48:34;;;;;;;31.87;12.30;;;;;;;5.45;72.75;96727.09;1801778;79;21269;-81
2021/01/25 04:51:02;;;;;;;27.10;11.55;;;;;;;5.48;73.26;96732.55;1799108;79;21233;-81
2021/01/25 04:53:30;;;;;;;27.40;11.22;;;;;;;5.50;73.07;96727.71;1795096;79;21315;-81
2021/01/25 04:55:59;;;;;;;23.77;10.00;;;;;;;5.50;73.55;96730.75;1801142;79;21299;-81
2021/01/25 04:58:27;;;;;;;19.75;10.23;;;;;;;5.45;74.17;96739.97;1792411;79;21291;-82
2021/01/25 05:00:55;;;;;;;26.97;10.75;;;;;;;5.47;73.74;96739.88;1796882;79;21278;-82
2021/01/25 05:03:22;;;;;;;22.22;10.55;;;;;;;5.50;73.90;96735.44;1800619;78;21166;-81
2021/01/25 05:05:50;;;;;;;23.02;10.88;;;;;;;5.52;73.43;96741.83;1795182;79;21247;-82
2021/01/25 05:08:18;;;;;;;23.18;10.85;;;;;;;5.50;73.55;96739.77;1802720;79;21327;-81
2021/01/25 05:10:46;;;;;;;19.70;9.83;;;;;;;5.43;73.49;96740.48;1804555;79;21310;-81
2021/01/25 05:13:23;;;;;;;20.08;10.48;;;;;;;5.34;74.27;96733.97;1806679;79;21307;-80
2021/01/25 05:15:53;;;;;;;31.52;13.50;;;;;;;5.32;75.09;96740.09;1803454;79;21259;-81
2021/01/25 05:18:23;;;;;;;27.15;14.03;;;;;;;5.29;74.06;96749.22;1810025;79;21245;-81
2021/01/25 05:20:57;;;;;;;30.50;14.05;;;;;;;5.20;77.14;96749.16;1796866;79;21587;-82
2021/01/25 05:23:25;;;;;;;32.73;14.87;;;;;;;5.16;75.96;96759.20;1799845;79;21287;-81
2021/01/25 05:25:58;;;;;;;32.25;16.27;;;;;;;5.05;76.59;96743.34;1777935;79;21272;-81
2021/01/25 05:28:26;;;;;;;30.70;13.68;;;;;;;4.95;77.36;96757.03;1805207;79;21842;-82
2021/01/25 05:30:54;;;;;;;26.20;10.32;;;;;;;4.86;77.21;96765.14;1802653;79;21291;-81
2021/01/25 05:33:26;;;;;;;23.35;11.18;;;;;;;4.83;77.10;96763.50;1803671;79;21319;-81
2021/01/25 05:35:56;;;;;;;25.37;12.82;;;;;;;4.81;77.67;96765.76;1801072;79;21121;-82
2021/01/25 05:38:24;;;;;;;22.80;10.90;;;;;;;4.80;79.44;96776.97;1810029;79;21315;-82
2021/01/25 05:40:56;;;;;;;23.05;10.82;;;;;;;4.83;77.98;96769.11;1799998;79;21785;-81
2021/01/25 05:43:31;;;;;;;22.20;10.53;;;;;;;4.82;78.81;96773.89;1805883;79;21209;-82
2021/01/25 05:46:13;;;;;;;20.90;10.95;;;;;;;4.83;77.35;96773.80;1801930;79;21229;-82
2021/01/25 05:48:42;;;;;;;26.20;11.40;;;;;;;4.83;78.32;96771.23;1810309;79;21259;-83
2021/01/25 05:51:17;;;;;;;27.17;12.80;;;;;;;4.85;78.76;96777.61;1800576;78;21264;-83
2021/01/25 05:53:47;;;;;;;26.65;10.32;;;;;;;4.86;79.03;96791.72;1809145;79;21413;-81
2021/01/25 05:56:17;;;;;;;30.55;11.55;;;;;;;4.88;79.99;96795.06;1797815;79;21245;-83
2021/01/25 05:58:45;;;;;;;26.35;11.97;;;;;;;4.94;78.02;96796.57;1813404;79;21303;-83
2021/01/25 06:01:13;;;;;;;23.62;11.88;;;;;;;4.97;78.72;96822.19;1805448;79;21259;-83
2021/01/25 06:03:42;;;;;;;26.27;12.58;;;;;;;5.03;77.62;96819.37;1812386;79;21255;-84
2021/01/25 06:06:13;;;;;;;27.70;12.25;;;;;;;4.98;78.99;96841.45;1804933;79;21398;-83
2021/01/25 06:08:52;;;;;;;27.13;15.23;;;;;;;4.96;79.09;96852.25;1799017;79;21272;-81
2021/01/25 06:11:29;;;;;;;28.07;9.15;;;;;;;4.99;81.12;96864.16;1794126;79;21157;-82
2021/01/25 06:14:39;;;;;;;27.50;11.70;;;;;;;5.13;80.22;96873.51;1854848;76;28701;-88
2021/01/25 06:17:10;;;;;;;24.92;9.93;;;;;;;5.19;79.03;96872.41;1850654;75;21255;-81
2021/01/25 06:19:40;;;;;;;22.25;9.10;;;;;;;5.23;79.12;96888.12;1847031;77;21279;-81
2021/01/25 06:22:10;;;;;;;30.48;9.73;;;;;;;5.18;78.40;96902.94;1849865;75;21290;-80
2021/01/25 06:24:41;;;;;;;23.15;9.80;;;;;;;5.14;78.76;96913.80;1846230;77;21389;-81
2021/01/25 06:27:15;;;;;;;13.48;6.80;;;;;;;5.07;80.63;96925.68;1844416;77;21252;-81
2021/01/25 07:03:03;;;;;;;1.37;0.95;;;;;;;4.48;78.78;97043.61;1773331;80;22046;-90
2021/01/25 07:05:36;;;;;;;2.90;1.30;;;;;;;4.41;78.86;97040.00;1768641;81;21172;-90
2021/01/25 07:08:24;;;;;;;2.87;1.10;;;;;;;4.35;79.25;97039.76;1750964;80;21325;-84
2021/01/25 07:13:55;;;;;;;3.12;1.12;;;;;;;4.39;77.62;97054.20;1721740;81;21188;-88
2021/01/25 07:16:27;;;;;;;1.17;0.80;;;;;;;4.49;74.23;97087.73;1724747;81;21232;-85
2021/01/25 07:18:55;;;;;;;10.80;4.12;;;;;;;4.47;73.19;97101.09;1730355;82;21291;-83
2021/01/25 07:21:26;;;;;;;10.80;4.83;;;;;;;4.38;71.03;97098.84;1733164;82;21260;-82
2021/01/25 07:23:58;;;;;;;3.08;1.20;;;;;;;4.38;70.98;97107.39;1709186;83;21264;-83
2021/01/25 07:26:23;;;;;;;0.72;0.65;;;;;;;4.33;69.21;97104.57;1728411;82;21231;-84
2021/01/25 07:28:51;;;;;;;2.40;1.00;;;;;;;4.22;68.04;97120.77;1740266;80;21569;-84
2021/01/25 07:31:20;;;;;;;1.10;0.72;;;;;;;4.19;68.99;97112.27;1728877;82;21279;-83
2021/01/25 07:33:50;;;;;;;1.87;1.07;;;;;;;3.97;67.03;97114.66;1716050;83;21168;-83
2021/01/25 07:36:22;;;;;;;1.65;1.07;;;;;;;4.08;67.44;97141.77;1733599;83;21236;-83
2021/01/25 07:38:48;;;;;;;1.17;0.80;;;;;;;3.95;67.27;97133.60;1735729;81;21232;-83
2021/01/25 07:41:16;;;;;;;2.92;1.60;;;;;;;3.82;67.19;97168.26;1722279;83;21291;-83
2021/01/25 07:43:44;;;;;;;2.87;1.60;;;;;;;3.73;68.02;97165.07;1728724;82;21299;-82
2021/01/25 07:46:12;;;;;;;1.47;0.95;;;;;;;3.56;69.03;97153.13;1730335;81;21279;-82
2021/01/25 07:48:52;;;;;;;2.02;1.20;;;;;;;3.47;69.15;97166.26;1736492;81;21312;-83
2021/01/25 07:51:25;;;;;;;1.92;1.10;;;;;;;3.48;69.29;97175.22;1736717;82;21287;-84
2021/01/25 07:53:54;;;;;;;2.60;1.60;;;;;;;3.39;69.92;97175.45;1724378;81;21316;-84
2021/01/25 07:56:24;;;;;;;4.75;2.12;;;;;;;3.36;70.46;97191.80;1711627;84;21296;-83
2021/01/25 07:59:17;;;;;;;5.08;1.55;;;;;;;3.39;69.70;97201.97;1704989;84;21573;-82
2021/01/25 08:01:55;;;;;;;5.72;2.08;;;;;;;3.28;70.21;97201.86;1703968;81;21142;-82
2021/01/25 08:04:29;;;;;;;2.08;0.98;;;;;;;3.25;70.17;97208.38;1728658;82;21271;-84
2021/01/25 08:06:59;;;;;;;6.60;1.50;;;;;;;3.27;70.20;97212.58;1736136;82;21241;-84
2021/01/25 08:09:28;;;;;;;1.70;1.20;;;;;;;3.25;69.80;97216.91;1743691;79;21148;-90
2021/01/25 08:11:57;;;;;;;2.37;1.10;;;;;;;3.19;69.84;97222.20;1759140;78;21320;-86
2021/01/25 08:14:32;;;;;;;1.87;0.82;;;;;;;3.12;69.27;97238.22;1747071;78;21266;-82
2021/01/25 08:17:04;;;;;;;3.52;0.90;;;;;;;3.16;69.35;97253.09;1778247;81;21295;-83
2021/01/25 08:19:40;;;;;;;0.65;0.62;;;;;;;3.13;69.34;97247.59;1777198;81;21279;-82
2021/01/25 08:22:19;;;;;;;3.72;0.90;;;;;;;3.12;69.41;97256.61;1775404;81;21204;-83
2021/01/25 08:24:56;;;;;;;2.27;0.78;;;;;;;2.99;68.77;97278.73;1777136;76;21228;-85
2021/01/25 08:27:25;;;;;;;1.32;0.80;;;;;;;2.97;69.15;97288.65;1774024;76;21243;-84
2021/01/25 08:30:16;;;;;;;1.80;1.00;;;;;;;2.96;69.21;97274.98;1771718;81;21280;-84
2021/01/25 08:32:47;;;;;;;2.45;1.17;;;;;;;2.93;69.02;97276.77;1780574;76;21295;-84
2021/01/25 08:35:29;;;;;;;4.25;1.27;;;;;;;2.90;68.33;97278.11;1776061;80;21267;-82
2021/01/25 08:38:14;;;;;;;3.15;1.22;;;;;;;2.93;68.17;97267.34;1759158;79;22756;-84
2021/01/25 08:40:42;;;;;;;1.35;0.85;;;;;;;2.89;68.28;97284.14;1727260;82;21163;-87
2021/01/25 08:43:24;;;;;;;0.88;0.80;;;;;;;2.95;68.11;97279.70;1731926;82;21311;-86
2021/01/25 08:45:54;;;;;;;1.02;0.78;;;;;;;3.04;67.25;97291.45;1746666;80;21291;-87
2021/01/25 08:48:32;;;;;;;2.05;0.88;;;;;;;3.05;66.47;97292.33;1749048;82;21264;-86
2021/01/25 08:51:15;;;;;;;15.68;1.07;;;;;;;3.18;66.10;97308.69;1731302;80;21271;-84
2021/01/25 08:53:45;;;;;;;;;;;;;;;3.29;67.03;97310.98;1741710;79;21405;-83
2021/01/25 08:56:18;;;;;;;1.75;0.80;;;;;;;3.33;65.65;97315.16;1740759;80;20236;-89
2021/01/25 08:58:46;;;;;;;1.77;1.10;;;;;;;3.29;65.68;97335.38;1700993;82;21296;-84
2021/01/25 09:01:20;;;;;;;0.75;0.75;;;;;;;3.39;66.47;97325.73;1712967;82;21290;-83
2021/01/25 09:03:47;;;;;;;2.02;0.85;;;;;;;3.31;67.04;97341.32;1722745;81;21245;-84
2021/01/25 09:06:15;;;;;;;1.87;1.05;;;;;;;3.31;66.87;97342.61;1709197;81;21254;-82
2021/01/25 09:08:43;;;;;;;2.47;0.90;;;;;;;3.24;66.66;97346.64;1710085;81;21270;-91
2021/01/25 09:11:11;;;;;;;2.90;1.37;;;;;;;3.23;67.10;97349.66;1656883;85;21174;-89
2021/01/25 09:13:39;;;;;;;2.90;1.17;;;;;;;3.19;67.41;97357.03;1674512;82;21264;-84
2021/01/25 09:16:06;;;;;;;2.15;1.10;;;;;;;3.21;67.51;97353.98;1682973;83;21197;-82
2021/01/25 09:18:34;;;;;;;2.20;0.90;;;;;;;3.32;67.09;97375.55;1670828;82;21288;-84
2021/01/25 09:21:04;;;;;;;5.45;2.00;;;;;;;3.30;67.15;97371.75;1666592;82;21117;-83
2021/01/25 09:23:33;;;;;;;0.95;0.78;;;;;;;3.33;67.16;97368.27;1647550;85;21288;-84
2021/01/25 09:26:03;;;;;;;1.80;1.20;;;;;;;3.45;66.76;97364.11;1655448;84;21245;-83
2021/01/25 09:28:40;;;;;;;2.27;1.47;;;;;;;3.53;67.28;97376.77;1658761;83;21182;-83
2021/01/25 09:31:09;;;;;;;4.15;1.65;;;;;;;3.58;66.28;97380.05;1686499;85;21294;-84
2021/01/25 09:33:40;;;;;;;1.75;1.00;;;;;;;3.71;66.45;97381.90;1642735;84;21269;-84
2021/01/25 09:36:14;;;;;;;1.42;1.10;;;;;;;3.66;65.63;97381.16;1642101;85;21150;-85
2021/01/25 09:38:51;;;;;;;1.75;0.90;;;;;;;3.72;65.86;97385.72;1695379;83;21641;-87
2021/01/25 09:41:19;;;;;;;2.37;1.17;;;;;;;3.68;65.71;97385.81;1684348;81;22063;-87
2021/01/25 09:43:47;;;;;;;8.88;1.30;;;;;;;3.71;65.33;97393.02;1616142;87;21190;-90
2021/01/25 09:46:14;;;;;;;1.87;1.27;;;;;;;3.75;65.61;97394.63;1613331;87;21392;-88
2021/01/25 09:48:42;;;;;;;4.22;1.55;;;;;;;3.66;65.32;97395.29;1615281;86;21293;-83
2021/01/25 09:51:10;;;;;;;3.72;1.25;;;;;;;3.66;65.56;97396.16;1616880;86;21288;-84
2021/01/25 09:53:38;;;;;;;10.28;4.03;;;;;;;3.75;65.59;97398.92;1658092;86;21284;-84
2021/01/25 09:56:06;;;;;;;11.50;3.12;;;;;;;3.63;65.23;97406.50;1656801;85;21318;-84
2021/01/25 09:58:36;;;;;;;4.42;3.02;;;;;;;3.62;65.64;97402.26;1688538;81;21287;-88
2021/01/25 10:01:05;;;;;;;2.90;1.90;;;;;;;3.58;65.98;97400.61;1678929;80;21374;-86
2021/01/25 10:03:33;;;;;;;2.55;1.45;;;;;;;3.55;66.41;97398.13;1671504;81;21300;-87
2021/01/25 10:06:00;;;;;;;1.98;1.25;;;;;;;3.48;66.36;97393.59;1628934;87;21250;-92
2021/01/25 10:08:28;;;;;;;4.40;1.57;;;;;;;3.39;66.29;97393.35;1630546;87;21178;-91
2021/01/25 10:10:56;;;;;;;2.37;1.40;;;;;;;3.37;66.16;97395.11;1631111;87;21617;-88
2021/01/25 10:13:24;;;;;;;2.40;1.30;;;;;;;3.39;66.16;97403.63;1623831;87;21231;-87
2021/01/25 10:15:51;;;;;;;16.67;1.85;;;;;;;3.27;66.32;97403.08;1628711;87;21242;-87
2021/01/25 10:18:20;;;;;;;2.75;1.40;;;;;;;3.29;66.56;97411.15;1634128;86;21179;-83
2021/01/25 10:20:47;;;;;;;3.35;1.82;;;;;;;3.18;66.41;97407.55;1636754;87;21157;-83
2021/01/25 10:23:15;;;;;;;2.92;1.77;;;;;;;3.21;66.43;97409.20;1633994;86;21310;-82
2021/01/25 10:25:43;;;;;;;2.08;1.40;;;;;;;3.17;66.75;97391.72;1631541;85;21561;-85
2021/01/25 10:28:11;;;;;;;4.62;1.62;;;;;;;3.30;66.45;97410.70;1638433;86;21151;-83
2021/01/25 10:30:38;;;;;;;3.98;1.50;;;;;;;3.29;66.59;97415.45;1631749;87;21148;-82
2021/01/25 10:33:06;;;;;;;2.27;1.32;;;;;;;3.25;65.95;97403.11;1625477;87;21171;-83
2021/01/25 10:35:34;;;;;;;4.85;1.72;;;;;;;3.17;66.23;97396.86;1625807;85;21164;-83
2021/01/25 10:38:03;;;;;;;5.17;2.08;;;;;;;3.31;66.68;97404.25;1633965;87;21157;-83
2021/01/25 10:40:33;;;;;;;5.12;1.70;;;;;;;3.28;66.80;97409.89;1621801;87;21221;-82
2021/01/25 10:43:00;;;;;;;6.37;1.60;;;;;;;3.35;66.39;97408.44;1627987;87;21177;-83
2021/01/25 10:45:28;;;;;;;3.67;1.75;;;;;;;3.31;65.96;97412.41;1623787;87;21155;-82
2021/01/25 10:47:56;;;;;;;4.45;1.50;;;;;;;3.33;65.19;97405.06;1683504;77;21187;-82
2021/01/25 10:50:24;;;;;;;6.22;2.25;;;;;;;3.26;65.40;97416.34;1812642;78;21742;-83
2021/01/25 10:52:52;;;;;;;2.85;1.70;;;;;;;3.29;65.88;97426.56;1773067;80;21721;-84
2021/01/25 10:55:20;;;;;;;2.37;1.50;;;;;;;3.21;65.96;97425.89;1768850;81;21285;-82
2021/01/25 10:57:48;;;;;;;6.37;2.10;;;;;;;3.25;66.14;97421.53;1762953;81;21295;-84
2021/01/25 11:00:20;;;;;;;3.62;1.98;;;;;;;3.22;65.92;97418.58;1757703;81;21280;-82
2021/01/25 11:02:49;;;;;;;4.87;1.75;;;;;;;3.24;66.26;97429.66;1761019;81;21273;-83
2021/01/25 11:05:21;;;;;;;4.42;2.35;;;;;;;3.29;66.45;97433.42;1751937;80;21299;-82
2021/01/25 11:07:49;;;;;;;9.45;1.92;;;;;;;3.10;66.80;97448.38;1780663;80;21154;-84
2021/01/25 11:10:23;;;;;;;3.42;1.87;;;;;;;3.20;66.48;97439.59;1738773;80;21332;-85
2021/01/25 11:12:52;;;;;;;5.03;2.35;;;;;;;3.28;66.54;97458.69;1757399;81;21147;-83
2021/01/25 11:15:20;;;;;;;3.17;1.95;;;;;;;3.12;66.31;97459.05;1747125;81;21147;-82
2021/01/25 11:17:48;;;;;;;5.10;1.98;;;;;;;3.24;66.04;97467.34;1758228;81;21150;-83
2021/01/25 11:20:17;;;;;;;7.80;2.80;;;;;;;3.10;66.07;97463.34;1764696;81;21300;-83
2021/01/25 11:22:45;;;;;;;10.03;2.20;;;;;;;3.10;66.02;97471.05;1759378;81;21280;-84
2021/01/25 11:25:14;;;;;;;2.90;1.90;;;;;;;3.10;65.47;97474.06;1748944;81;21300;-82
2021/01/25 11:27:42;;;;;;;3.15;1.70;;;;;;;3.19;65.32;97467.45;1751926;81;21364;-85
2021/01/25 11:30:11;;;;;;;2.90;1.40;;;;;;;3.17;65.16;97467.93;1761501;80;21293;-84
2021/01/25 11:32:39;;;;;;;3.65;1.30;;;;;;;3.11;65.03;97472.75;1738683;82;21321;-84
2021/01/25 11:35:08;;;;;;;6.62;2.62;;;;;;;3.08;64.78;97477.94;1757231;80;21544;-85
2021/01/25 11:37:37;;;;;;;3.12;1.98;;;;;;;3.05;65.18;97477.18;1725316;79;21182;-90
2021/01/25 11:40:08;;;;;;;2.77;1.60;;;;;;;3.09;65.36;97480.09;1756703;81;21182;-90
2021/01/25 11:42:35;;;;;;;3.52;1.85;;;;;;;3.05;65.45;97483.16;1729727;79;21290;-89
2021/01/25 11:45:05;;;;;;;2.72;1.70;;;;;;;3.15;65.81;97486.37;1710764;82;21183;-88
2021/01/25 11:47:33;;;;;;;6.70;2.45;;;;;;;3.12;65.30;97510.41;1720520;80;21280;-83
2021/01/25 11:52:43;;;;;;;5.08;1.60;;;;;;;3.20;65.08;97506.37;1882932;76;22847;-87
2021/01/25 11:55:13;;;;;;;7.53;1.80;;;;;;;3.10;64.51;97512.58;1823815;75;21208;-84
2021/01/25 11:57:40;;;;;;;3.90;1.65;;;;;;;3.13;65.28;97512.53;1788811;77;21244;-84
2021/01/25 12:00:09;;;;;;;3.60;1.60;;;;;;;3.11;64.90;97515.56;1773382;78;21278;-89
2021/01/25 12:02:39;;;;;;;7.35;2.35;;;;;;;3.16;65.33;97526.57;1764716;81;21734;-86
2021/01/25 12:05:09;;;;;;;4.03;2.00;;;;;;;3.14;66.07;97529.19;1739455;81;21306;-83
2021/01/25 12:07:38;;;;;;;7.60;2.55;;;;;;;3.17;65.66;97533.41;1716397;83;21209;-84
2021/01/25 12:10:07;;;;;;;5.20;2.40;;;;;;;3.15;65.92;97533.88;1711480;83;21165;-85
2021/01/25 12:12:35;;;;;;;2.72;1.65;;;;;;;3.18;65.84;97532.52;1685576;83;21510;-84
2021/01/25 12:15:04;;;;;;;5.17;2.45;;;;;;;2.93;66.89;97536.88;1708031;82;21300;-88
2021/01/25 12:17:32;;;;;;;4.03;2.10;;;;;;;2.96;67.14;97534.27;1709338;82;21192;-89
2021/01/25 12:20:00;;;;;;;4.40;2.45;;;;;;;2.88;67.97;97539.95;1704937;83;21252;-84
2021/01/25 12:22:28;;;;;;;3.77;2.50;;;;;;;2.77;68.79;97544.47;1727081;83;21269;-82
2021/01/25 12:24:56;;;;;;;3.47;2.30;;;;;;;2.58;69.43;97549.91;1736272;80;21300;-85
2021/01/25 12:27:24;;;;;;;12.33;3.10;;;;;;;2.54;69.24;97546.99;1706795;83;21225;-87